createdAt,value
2022-12-17T00:00:52.064Z,115.50
2022-12-17T00:04:32.616Z,114.67
2022-12-17T00:08:16.341Z,116.83
2022-12-17T00:11:57.050Z,121.33
2022-12-17T00:15:39.190Z,117.80
2022-12-17T00:19:19.858Z,112.73
2022-12-17T00:23:00.243Z,115.77
2022-12-17T00:26:40.768Z,111.50
2022-12-17T00:30:21.713Z,101.27
2022-12-17T00:34:04.815Z,93.80
2022-12-17T00:37:46.102Z,95.33
2022-12-17T00:41:26.695Z,88.87
2022-12-17T00:45:07.396Z,112.27
2022-12-17T00:48:47.646Z,96.03
2022-12-17T00:52:29.293Z,89.83
2022-12-17T00:56:09.708Z,99.83
2022-12-17T00:59:50.245Z,94.37
2022-12-17T01:03:32.323Z,87.30
2022-12-17T01:07:12.809Z,84.20
2022-12-17T01:10:54.814Z,106.57
2022-12-17T01:14:42.512Z,89.13
2022-12-17T01:18:23.637Z,107.43
2022-12-17T01:22:05.372Z,96.80
2022-12-17T01:25:45.763Z,102.73
2022-12-17T01:29:27.378Z,105.80
2022-12-17T01:33:07.948Z,103.00
2022-12-17T01:36:48.200Z,98.97
2022-12-17T01:40:29.503Z,101.57
2022-12-17T01:44:12.855Z,90.03
2022-12-17T01:47:58.273Z,93.97
2022-12-17T01:51:39.184Z,95.83
2022-12-17T01:55:21.442Z,93.13
2022-12-17T01:58:58.784Z,97.93
2022-12-17T02:02:39.576Z,102.87
2022-12-17T02:06:29.235Z,102.23
2022-12-17T02:10:27.058Z,92.93
2022-12-17T02:14:14.724Z,99.73
2022-12-17T02:18:00.131Z,90.27
2022-12-17T02:21:44.175Z,99.03
2022-12-17T02:25:35.137Z,89.40
2022-12-17T02:29:20.411Z,89.47
2022-12-17T02:33:03.636Z,102.30
2022-12-17T02:36:44.632Z,93.93
2022-12-17T02:40:25.981Z,89.77
2022-12-17T02:44:06.968Z,90.47
2022-12-17T02:47:45.509Z,100.60
2022-12-17T02:51:26.327Z,101.33
2022-12-17T02:55:06.626Z,100.00
2022-12-17T02:58:47.293Z,101.23
2022-12-17T03:02:28.096Z,89.90
2022-12-17T03:06:09.929Z,102.83
2022-12-17T03:09:50.584Z,94.63
2022-12-17T03:13:40.723Z,106.77
2022-12-17T03:17:22.006Z,94.83
2022-12-17T03:21:02.321Z,89.20
2022-12-17T03:24:44.420Z,89.83
2022-12-17T03:28:26.514Z,78.63
2022-12-17T03:32:06.946Z,84.87
2022-12-17T03:35:47.295Z,90.33
2022-12-17T03:39:27.843Z,73.90
2022-12-17T03:43:09.825Z,91.83
2022-12-17T03:46:50.593Z,87.93
2022-12-17T03:50:31.216Z,93.87
2022-12-17T03:54:11.878Z,88.07
2022-12-17T03:57:52.353Z,91.03
2022-12-17T04:01:34.334Z,91.47
2022-12-17T04:05:19.936Z,94.40
2022-12-17T04:09:01.109Z,106.67
2022-12-17T04:12:41.795Z,94.67
2022-12-17T04:16:27.612Z,85.57
2022-12-17T04:20:09.573Z,78.13
2022-12-17T04:23:50.402Z,69.23
2022-12-17T04:27:31.009Z,73.70
2022-12-17T04:31:11.618Z,65.50
2022-12-17T04:34:51.932Z,79.47
2022-12-17T04:38:33.925Z,73.00
2022-12-17T04:42:14.364Z,72.53
2022-12-17T04:45:54.862Z,67.13
2022-12-17T04:49:37.379Z,75.13
2022-12-17T04:53:21.085Z,63.70
2022-12-17T04:57:03.505Z,76.23
2022-12-17T05:00:44.123Z,73.17
2022-12-17T05:04:23.887Z,70.40
2022-12-17T05:08:09.860Z,58.07
2022-12-17T05:11:50.411Z,61.07
2022-12-17T05:15:32.330Z,62.20
2022-12-17T05:19:13.197Z,56.30
2022-12-17T05:22:53.900Z,57.93
2022-12-17T05:26:39.007Z,64.10
2022-12-17T05:30:19.686Z,65.87
2022-12-17T05:34:01.511Z,58.87
2022-12-17T05:37:42.254Z,65.30
2022-12-17T05:41:23.063Z,64.03
2022-12-17T05:45:03.876Z,62.03
2022-12-17T05:48:44.355Z,58.13
2022-12-17T05:52:26.209Z,61.57
2022-12-17T05:56:10.194Z,58.63
2022-12-17T05:59:50.009Z,59.37
2022-12-17T06:03:30.694Z,55.60
2022-12-17T06:07:11.135Z,54.77
2022-12-17T06:10:52.985Z,54.07
2022-12-17T06:14:33.601Z,58.00
2022-12-17T06:18:17.125Z,51.00
2022-12-17T06:21:58.118Z,62.90
2022-12-17T06:25:40.426Z,58.20
2022-12-17T06:29:22.448Z,54.97
2022-12-17T06:33:03.091Z,56.17
2022-12-17T06:36:43.723Z,51.83
2022-12-17T06:40:25.315Z,49.97
2022-12-17T06:44:06.354Z,56.07
2022-12-17T06:47:48.323Z,57.80
2022-12-17T06:51:29.043Z,59.83
2022-12-17T06:55:09.561Z,55.80
2022-12-17T06:58:50.179Z,50.47
2022-12-17T07:02:30.913Z,53.43
2022-12-17T07:06:12.862Z,62.37
2022-12-17T07:09:53.355Z,55.30
2022-12-17T07:13:34.946Z,57.87
2022-12-17T07:17:15.415Z,64.00
2022-12-17T07:20:55.742Z,66.20
2022-12-17T07:24:37.592Z,57.50
2022-12-17T07:28:17.825Z,56.40
2022-12-17T07:31:59.275Z,59.87
2022-12-17T07:35:39.838Z,52.93
2022-12-17T07:39:20.271Z,59.23
2022-12-17T07:43:02.157Z,49.10
2022-12-17T07:46:42.835Z,50.67
2022-12-17T07:50:23.992Z,50.13
2022-12-17T07:54:04.565Z,55.70
2022-12-17T07:57:44.883Z,57.67
2022-12-17T08:01:27.071Z,56.43
2022-12-17T08:05:07.780Z,54.67
2022-12-17T08:08:48.102Z,54.47
2022-12-17T08:12:28.744Z,53.83
2022-12-17T08:16:11.604Z,60.10
2022-12-17T08:19:53.275Z,62.83
2022-12-17T08:23:33.807Z,60.17
2022-12-17T08:27:14.659Z,53.23
2022-12-17T08:30:55.081Z,56.37
2022-12-17T08:34:35.292Z,56.57
2022-12-17T08:38:22.528Z,57.00
2022-12-17T08:42:06.147Z,56.70
2022-12-17T08:45:46.844Z,59.77
2022-12-17T08:49:27.297Z,57.43
2022-12-17T08:53:07.640Z,54.37
2022-12-17T08:56:49.409Z,52.13
2022-12-17T09:00:30.569Z,54.67
2022-12-17T09:04:10.910Z,54.77
2022-12-17T09:07:51.319Z,52.10
2022-12-17T09:11:32.190Z,57.27
2022-12-17T09:15:14.125Z,57.77
2022-12-17T09:18:54.531Z,54.80
2022-12-17T09:22:34.926Z,53.90
2022-12-17T09:26:15.999Z,54.77
2022-12-17T09:29:56.243Z,44.97
2022-12-17T09:33:38.552Z,53.27
2022-12-17T09:37:19.472Z,46.77
2022-12-17T09:41:01.664Z,50.13
2022-12-17T09:44:47.723Z,55.70
2022-12-17T09:48:37.512Z,58.80
2022-12-17T09:52:19.597Z,64.07
2022-12-17T09:56:05.656Z,71.70
2022-12-17T09:59:48.044Z,61.57
2022-12-17T10:03:31.194Z,62.47
2022-12-17T10:07:11.951Z,59.03
2022-12-17T10:10:59.604Z,66.63
2022-12-17T10:14:41.456Z,54.57
2022-12-17T10:18:25.571Z,58.73
2022-12-17T10:22:06.148Z,60.90
2022-12-17T10:25:46.419Z,53.50
2022-12-17T10:29:32.332Z,58.13
2022-12-17T10:33:14.949Z,49.90
2022-12-17T10:36:55.282Z,57.07
2022-12-17T10:40:42.815Z,51.27
2022-12-17T10:48:22.828Z,56.77
2022-12-17T10:52:03.635Z,50.87
2022-12-17T10:55:46.539Z,53.23
2022-12-17T10:59:31.192Z,52.00
2022-12-17T11:03:13.093Z,46.77
2022-12-17T11:06:56.145Z,57.90
2022-12-17T11:10:39.876Z,53.70
2022-12-17T11:14:21.816Z,49.03
2022-12-17T11:18:09.460Z,57.90
2022-12-17T11:21:58.431Z,64.07
2022-12-17T11:25:47.975Z,58.37
2022-12-17T11:29:32.050Z,56.23
2022-12-17T11:33:21.807Z,62.03
2022-12-17T11:37:09.051Z,55.57
2022-12-17T11:40:57.557Z,65.03
2022-12-17T11:44:50.804Z,62.00
2022-12-17T11:48:36.229Z,50.60
2022-12-17T11:52:23.518Z,52.07
2022-12-17T11:56:12.303Z,64.00
2022-12-17T11:59:59.513Z,55.17
2022-12-17T12:03:55.270Z,62.80
2022-12-17T12:07:42.675Z,58.43
2022-12-17T12:11:37.978Z,66.37
2022-12-17T12:15:29.716Z,76.47
2022-12-17T12:19:29.539Z,63.70
2022-12-17T12:23:21.830Z,64.07
2022-12-17T12:27:11.134Z,70.60
2022-12-17T12:30:58.645Z,61.00
2022-12-17T12:34:43.835Z,66.30
2022-12-17T12:38:34.995Z,66.10
2022-12-17T12:42:22.263Z,64.63
2022-12-17T12:46:09.566Z,68.00
2022-12-17T12:49:50.598Z,64.50
2022-12-17T12:53:32.861Z,63.77
2022-12-17T12:57:19.445Z,71.00
2022-12-17T13:01:13.288Z,61.03
2022-12-17T13:04:55.677Z,60.67
2022-12-17T13:08:25.477Z,67.47
2022-12-17T13:11:50.335Z,63.27
2022-12-17T13:15:33.363Z,65.13
2022-12-17T13:19:03.400Z,69.93
2022-12-17T13:22:30.052Z,66.20
2022-12-17T13:26:18.176Z,59.37
2022-12-17T13:29:41.139Z,57.37
2022-12-17T13:33:29.682Z,61.83
2022-12-17T13:37:00.920Z,56.27
2022-12-17T13:40:35.349Z,57.10
2022-12-17T13:44:03.080Z,55.80
2022-12-17T13:47:28.598Z,59.80
2022-12-17T13:50:55.892Z,58.23
2022-12-17T13:54:20.577Z,56.60
2022-12-17T13:57:46.748Z,55.17
2022-12-17T14:01:15.940Z,64.60
2022-12-17T14:04:39.212Z,56.77
2022-12-17T14:08:04.273Z,57.40
2022-12-17T14:11:45.073Z,49.57
2022-12-17T14:15:21.780Z,58.40
2022-12-17T14:18:50.004Z,52.60
2022-12-17T14:22:19.883Z,50.50
2022-12-17T14:25:45.114Z,51.97
2022-12-17T14:29:14.019Z,56.50
2022-12-17T14:32:38.471Z,62.70
2022-12-17T14:36:07.062Z,62.70
2022-12-17T14:39:32.026Z,54.13
2022-12-17T14:43:00.136Z,63.80
2022-12-17T14:46:23.491Z,53.13
2022-12-17T14:49:55.877Z,56.50
2022-12-17T14:53:28.288Z,49.47
2022-12-17T14:56:51.402Z,51.33
2022-12-17T15:00:15.527Z,50.23
2022-12-17T15:03:41.409Z,49.07
2022-12-17T15:07:05.871Z,49.07
2022-12-17T15:10:30.093Z,53.93
2022-12-17T15:13:56.346Z,44.50
2022-12-17T15:17:20.068Z,53.80
2022-12-17T15:20:43.232Z,55.97
2022-12-17T15:24:11.570Z,57.13
2022-12-17T15:27:35.810Z,67.73
2022-12-17T15:30:58.759Z,59.07
2022-12-17T15:34:21.713Z,68.87
2022-12-17T15:37:44.591Z,74.43
2022-12-17T15:41:21.773Z,68.87
2022-12-17T15:44:45.980Z,66.97
2022-12-17T15:48:09.012Z,63.67
2022-12-17T15:51:31.892Z,66.83
2022-12-17T15:54:54.764Z,72.77
2022-12-17T15:58:19.033Z,67.27
2022-12-17T16:01:43.360Z,63.87
2022-12-17T16:05:07.423Z,57.60
2022-12-17T16:08:30.711Z,76.93
2022-12-17T16:11:55.040Z,69.30
2022-12-17T16:15:18.176Z,72.13
2022-12-17T16:18:42.512Z,73.43
2022-12-17T16:22:05.529Z,74.73
2022-12-17T16:25:28.409Z,72.47
2022-12-17T16:28:51.321Z,76.13
2022-12-17T16:32:14.544Z,90.03
2022-12-17T16:35:38.780Z,82.83
2022-12-17T16:39:01.646Z,85.10
2022-12-17T16:42:24.539Z,77.90
2022-12-17T16:45:49.703Z,79.10
2022-12-17T16:49:14.476Z,73.03
2022-12-17T16:52:38.946Z,90.70
2022-12-17T16:56:01.800Z,81.47
2022-12-17T16:59:25.120Z,78.47
2022-12-17T17:02:52.922Z,81.27
2022-12-17T17:06:17.228Z,70.70
2022-12-17T17:09:41.477Z,82.23
2022-12-17T17:13:05.075Z,87.13
2022-12-17T17:16:28.919Z,85.27
2022-12-17T17:19:52.024Z,96.60
2022-12-17T17:23:14.917Z,79.57
2022-12-17T17:26:39.584Z,75.17
2022-12-17T17:30:03.902Z,71.13
2022-12-17T17:33:30.489Z,73.83
2022-12-17T17:36:53.379Z,86.37
2022-12-17T17:40:16.308Z,74.20
2022-12-17T17:43:40.561Z,77.87
2022-12-17T17:47:03.966Z,84.97
2022-12-17T17:50:26.889Z,82.83
2022-12-17T17:53:51.592Z,84.60
2022-12-17T17:57:14.505Z,91.67
2022-12-17T18:00:39.816Z,80.67
2022-12-17T18:04:03.922Z,79.87
2022-12-17T18:07:27.670Z,83.87
2022-12-17T18:10:58.381Z,78.53
2022-12-17T18:14:21.293Z,91.73
2022-12-17T18:17:46.505Z,65.87
2022-12-17T18:21:12.019Z,76.07
2022-12-17T18:24:34.920Z,72.53
2022-12-17T18:27:57.859Z,71.07
2022-12-17T18:31:22.928Z,65.47
2022-12-17T18:34:47.281Z,70.30
2022-12-17T18:38:10.304Z,66.43
2022-12-17T18:41:50.740Z,65.53
2022-12-17T18:45:13.719Z,67.40
2022-12-17T18:48:36.972Z,64.00
2022-12-17T18:52:01.660Z,59.20
2022-12-17T18:55:24.572Z,55.33
2022-12-17T18:58:47.502Z,52.87
2022-12-17T19:02:12.503Z,47.07
2022-12-17T19:05:36.494Z,46.30
2022-12-17T19:09:03.974Z,49.23
2022-12-17T19:12:26.856Z,43.07
2022-12-17T19:15:49.756Z,39.23
2022-12-17T19:19:13.886Z,41.23
2022-12-17T19:22:36.824Z,42.27
2022-12-17T19:26:08.695Z,44.30
2022-12-17T19:29:31.782Z,40.20
2022-12-17T19:32:54.652Z,55.43
2022-12-17T19:36:22.612Z,51.60
2022-12-17T19:39:49.531Z,48.20
2022-12-17T19:43:13.765Z,46.10
2022-12-17T19:46:37.793Z,51.23
2022-12-17T19:50:00.706Z,52.53
2022-12-17T19:53:27.207Z,46.53
2022-12-17T19:56:50.103Z,56.07
2022-12-17T20:00:15.479Z,60.67
2022-12-17T20:03:39.587Z,52.43
2022-12-17T20:07:02.566Z,48.43
2022-12-17T20:10:25.466Z,47.53
2022-12-17T20:13:54.244Z,51.17
2022-12-17T20:17:20.250Z,52.87
2022-12-17T20:20:43.136Z,51.80
2022-12-17T20:24:06.573Z,45.87
2022-12-17T20:27:29.897Z,39.87
2022-12-17T20:30:58.080Z,41.87
2022-12-17T20:34:26.219Z,40.23
2022-12-17T20:37:49.168Z,52.23
2022-12-17T20:41:13.689Z,49.43
2022-12-17T20:44:36.592Z,49.97
2022-12-17T20:47:59.493Z,43.97
2022-12-17T20:51:26.638Z,42.70
2022-12-17T20:54:50.200Z,44.73
2022-12-17T20:58:13.701Z,40.37
2022-12-17T21:01:38.049Z,39.43
2022-12-17T21:05:01.077Z,32.53
2022-12-17T21:08:25.304Z,36.37
2022-12-17T21:11:48.404Z,34.37
2022-12-17T21:15:11.301Z,39.30
2022-12-17T21:18:34.968Z,46.60
2022-12-17T21:21:57.989Z,39.33
2022-12-17T21:25:22.253Z,40.90
2022-12-17T21:28:46.262Z,44.50
2022-12-17T21:32:09.651Z,49.90
2022-12-17T21:35:32.556Z,45.37
2022-12-17T21:38:56.084Z,45.17
2022-12-17T21:42:37.878Z,28.97
2022-12-17T21:46:00.812Z,26.63
2022-12-17T21:49:23.824Z,27.63
2022-12-17T21:52:47.000Z,27.20
2022-12-17T21:56:12.993Z,26.63
2022-12-17T21:59:40.063Z,25.67
2022-12-17T22:03:03.227Z,27.97
2022-12-17T22:06:29.872Z,21.37
2022-12-17T22:10:26.379Z,19.17
2022-12-17T22:14:08.590Z,26.73
2022-12-17T22:17:34.312Z,33.40
2022-12-17T22:21:00.373Z,40.47
2022-12-17T22:24:24.666Z,38.10
2022-12-17T22:27:47.554Z,33.10
2022-12-17T22:31:31.130Z,31.83
2022-12-17T22:35:56.096Z,27.13
2022-12-17T22:43:12.989Z,33.33
2022-12-17T22:44:35.842Z,32.57
2022-12-17T22:46:24.907Z,36.93
2022-12-17T22:49:47.886Z,26.20
2022-12-17T22:53:12.313Z,17.40
2022-12-17T22:57:08.639Z,19.30
2022-12-17T23:00:23.264Z,22.10
2022-12-17T23:03:46.274Z,20.10
2022-12-17T23:07:09.308Z,16.47
2022-12-17T23:10:33.618Z,21.00
2022-12-17T23:13:56.962Z,18.23
2022-12-17T23:17:19.871Z,20.30
2022-12-17T23:20:42.762Z,20.57
2022-12-17T23:24:06.534Z,27.27
2022-12-17T23:27:31.281Z,24.23
2022-12-17T23:30:54.336Z,23.47
2022-12-17T23:34:18.010Z,22.40
2022-12-17T23:37:41.389Z,30.67
2022-12-17T23:41:06.040Z,26.27
2022-12-17T23:44:30.349Z,54.27
2022-12-17T23:47:53.272Z,57.90
2022-12-17T23:51:19.390Z,59.90
2022-12-17T23:54:42.300Z,62.27
2022-12-17T23:58:05.224Z,40.77
